createdAt,value
2023-01-21T04:26:22.714Z,100713.70
2023-01-21T04:28:51.810Z,100714.27
2023-01-21T04:31:19.367Z,100708.38
2023-01-21T04:33:46.508Z,100712.15
2023-01-21T04:36:13.425Z,100717.81
2023-01-21T04:38:40.432Z,100719.29
2023-01-21T04:41:07.538Z,100723.39
2023-01-21T04:43:35.949Z,100725.53
2023-01-21T04:46:02.972Z,100729.87
2023-01-21T04:48:29.983Z,100730.89
2023-01-21T04:50:57.029Z,100737.90
2023-01-21T04:53:24.122Z,100746.59
2023-01-21T04:55:51.989Z,100753.77
2023-01-21T04:58:23.910Z,100754.13
2023-01-21T05:00:51.900Z,100754.71
2023-01-21T05:03:19.009Z,100755.62
2023-01-21T05:05:46.053Z,100757.61
2023-01-21T05:08:13.107Z,100753.81
2023-01-21T05:10:40.606Z,100755.50
2023-01-21T05:13:10.690Z,100768.58
2023-01-21T05:15:38.129Z,100769.87
2023-01-21T05:18:05.338Z,100772.88
2023-01-21T05:20:32.703Z,100778.46
2023-01-21T05:22:59.739Z,100787.73
2023-01-21T05:25:30.443Z,100790.17
2023-01-21T05:27:57.800Z,100794.78
2023-01-21T05:30:24.866Z,100803.59
2023-01-21T05:32:52.835Z,100819.63
2023-01-21T05:35:21.245Z,100840.71
2023-01-21T05:37:48.243Z,100846.52
2023-01-21T05:40:16.330Z,100853.66
2023-01-21T05:42:43.901Z,100858.96
2023-01-21T05:45:14.038Z,100854.85
2023-01-21T05:47:41.025Z,100856.45
2023-01-21T05:50:09.397Z,100863.97
2023-01-21T05:52:36.837Z,100869.08
2023-01-21T05:55:04.140Z,100869.34
2023-01-21T05:57:33.572Z,100878.92
2023-01-21T06:00:00.836Z,100887.85
2023-01-21T06:02:28.046Z,100894.80
2023-01-21T06:04:55.172Z,100903.52
2023-01-21T06:07:22.213Z,100916.08
2023-01-21T06:09:49.281Z,100917.39
2023-01-21T06:12:16.269Z,100915.66
2023-01-21T06:14:43.388Z,100932.66
2023-01-21T06:17:10.833Z,100942.89
2023-01-21T06:19:37.807Z,100937.75
2023-01-21T06:22:04.992Z,100944.94
2023-01-21T06:24:32.193Z,100955.84
2023-01-21T06:26:59.325Z,100955.33
2023-01-21T06:29:26.507Z,100957.70
2023-01-21T06:31:53.869Z,100958.39
2023-01-21T06:34:21.421Z,100960.37
2023-01-21T06:36:48.482Z,100957.45
2023-01-21T06:39:15.915Z,100954.23
2023-01-21T06:41:42.918Z,100941.42
2023-01-21T06:44:10.078Z,100934.01
2023-01-21T06:46:41.063Z,100918.50
2023-01-21T06:49:08.325Z,100915.73
2023-01-21T06:51:35.275Z,100929.37
2023-01-21T06:54:03.846Z,100933.83
2023-01-21T06:56:30.860Z,100933.52
2023-01-21T06:58:57.862Z,100944.84
2023-01-21T07:01:30.290Z,100961.27
2023-01-21T10:16:36.310Z,101156.70
2023-01-21T10:19:03.588Z,101168.61
2023-01-21T10:21:51.432Z,101173.85
2023-01-21T10:24:29.874Z,101176.06
2023-01-21T10:26:57.242Z,101175.39
2023-01-21T10:29:25.192Z,101178.25
2023-01-21T10:31:59.675Z,101173.60
2023-01-21T10:34:31.196Z,101175.14
2023-01-21T10:37:20.080Z,101180.85
2023-01-21T10:39:59.598Z,101178.77
2023-01-21T10:42:36.287Z,101181.95
2023-01-21T10:45:26.576Z,101183.95
2023-01-21T10:48:32.824Z,101185.15
2023-01-21T10:51:10.415Z,101192.08
2023-01-21T10:53:56.949Z,101197.57
2023-01-21T10:56:36.587Z,101208.53
2023-01-21T10:59:12.697Z,101216.36
2023-01-21T11:01:41.196Z,101216.70
2023-01-21T11:04:28.848Z,101217.61
2023-01-21T11:07:07.435Z,101218.96
2023-01-21T11:09:38.185Z,101219.52
2023-01-21T11:12:05.360Z,101223.50
2023-01-21T11:14:32.536Z,101226.77
2023-01-21T11:17:08.143Z,101229.97
2023-01-21T11:19:35.200Z,101231.77
2023-01-21T11:22:14.024Z,101239.58
2023-01-21T11:25:06.171Z,101239.35
2023-01-21T11:27:38.234Z,101242.75
2023-01-21T11:30:21.071Z,101244.20
2023-01-21T11:33:12.444Z,101250.36
2023-01-21T11:35:41.158Z,101257.38
2023-01-21T11:38:23.375Z,101264.39
2023-01-21T11:41:02.185Z,101269.48
2023-01-21T11:43:54.686Z,101271.11
2023-01-21T11:46:34.155Z,101273.45
2023-01-21T11:49:07.578Z,101276.37
2023-01-21T11:51:36.553Z,101280.31
2023-01-21T11:54:23.484Z,101283.14
2023-01-21T11:57:03.691Z,101277.92
2023-01-21T11:59:44.953Z,101283.99
2023-01-21T12:02:37.151Z,101284.60
2023-01-21T12:05:09.861Z,101290.52
2023-01-21T12:07:42.084Z,101293.43
2023-01-21T12:10:29.733Z,101287.83
2023-01-21T12:13:18.445Z,101288.12
2023-01-21T12:16:12.741Z,101293.59
2023-01-21T12:19:16.641Z,101303.77
2023-01-21T12:22:12.018Z,101308.40
2023-01-21T12:24:39.484Z,101312.66
2023-01-21T12:27:27.855Z,101318.91
2023-01-21T12:30:18.765Z,101325.84
2023-01-21T12:32:49.132Z,101331.64
2023-01-21T12:35:27.755Z,101332.86
2023-01-21T12:37:58.589Z,101337.57
2023-01-21T12:40:45.903Z,101341.67
2023-01-21T12:43:22.204Z,101349.73
2023-01-21T12:46:14.589Z,101354.10
2023-01-21T12:48:48.201Z,101356.58
2023-01-21T12:51:19.150Z,101357.58
2023-01-21T12:53:46.358Z,101363.39
2023-01-21T12:56:19.597Z,101366.07
2023-01-21T12:58:56.096Z,101364.63
2023-01-21T13:01:46.535Z,101366.43
2023-01-21T13:04:35.389Z,101371.58
2023-01-21T13:07:19.550Z,101371.58
2023-01-21T13:10:10.026Z,101371.27
2023-01-21T13:12:37.180Z,101377.60
2023-01-21T13:15:16.968Z,101378.40
2023-01-21T13:17:45.629Z,101380.60
2023-01-21T13:20:22.542Z,101382.10
2023-01-21T13:23:12.818Z,101382.05
2023-01-21T13:26:20.271Z,101388.72
2023-01-21T13:28:51.067Z,101393.55
2023-01-21T13:31:42.277Z,101395.57
2023-01-21T13:34:13.131Z,101393.42
2023-01-21T13:37:27.473Z,101394.90
2023-01-21T13:40:11.568Z,101396.76
2023-01-21T13:43:01.822Z,101402.55
2023-01-21T13:46:16.344Z,101403.84
2023-01-21T13:49:30.190Z,101403.98
2023-01-21T13:52:48.112Z,101409.64
2023-01-21T13:55:44.672Z,101419.92
2023-01-21T14:03:22.243Z,101424.89
2023-01-21T14:06:12.395Z,101430.73
2023-01-21T14:08:42.884Z,101428.33
2023-01-21T14:11:32.391Z,101430.52
2023-01-21T14:14:45.312Z,101438.01
2023-01-21T14:17:44.927Z,101439.16
2023-01-21T14:20:54.990Z,101446.69
2023-01-21T14:23:57.828Z,101446.10
2023-01-21T14:27:03.818Z,101445.75
2023-01-21T14:29:52.619Z,101452.90
2023-01-21T14:32:49.257Z,101452.05
2023-01-21T14:35:51.501Z,101456.88
2023-01-21T14:38:38.344Z,101455.54
2023-01-21T14:41:10.149Z,101460.34
2023-01-21T14:43:42.797Z,101461.39
2023-01-21T14:46:39.736Z,101468.03
2023-01-21T14:49:12.807Z,101470.84
2023-01-21T14:51:48.465Z,101475.70
2023-01-21T14:54:31.758Z,101478.55
2023-01-21T14:57:18.525Z,101482.89
2023-01-21T14:59:47.408Z,101483.66
2023-01-21T15:02:28.477Z,101488.77
2023-01-21T15:05:18.954Z,101493.31
2023-01-21T15:07:51.323Z,101494.31
2023-01-21T15:10:24.714Z,101499.81
2023-01-21T15:12:55.820Z,101504.55
2023-01-21T15:15:39.929Z,101504.84
2023-01-21T15:18:11.289Z,101512.00
2023-01-21T15:20:47.452Z,101514.72
2023-01-21T15:23:37.971Z,101522.05
2023-01-21T15:26:09.181Z,101521.95
2023-01-21T15:28:58.772Z,101520.10
2023-01-21T15:31:30.665Z,101521.12
2023-01-21T15:34:04.685Z,101527.79
2023-01-21T15:36:48.890Z,101526.09
2023-01-21T15:39:24.665Z,101534.34
2023-01-21T15:42:25.687Z,101535.30
2023-01-21T15:45:36.809Z,101539.08
2023-01-21T15:49:11.256Z,101542.42
2023-01-21T15:52:14.673Z,101543.10
2023-01-21T15:54:50.476Z,101541.86
2023-01-21T16:00:30.239Z,101544.54
2023-01-21T20:55:02.129Z,101784.14
2023-01-21T20:57:30.700Z,101785.59
2023-01-21T20:59:57.865Z,101789.08
2023-01-21T21:02:25.375Z,101787.24
2023-01-21T21:04:55.499Z,101790.90
2023-01-21T21:07:42.669Z,101791.17
2023-01-21T21:10:27.017Z,101790.88
2023-01-21T21:12:56.068Z,101788.64
2023-01-21T21:15:27.848Z,101792.06
2023-01-21T21:17:57.045Z,101797.23
2023-01-21T21:20:28.737Z,101804.41
2023-01-21T21:22:56.226Z,101803.14
2023-01-21T21:25:27.207Z,101812.38
2023-01-21T21:27:55.461Z,101813.73
2023-01-21T21:30:28.981Z,101814.02
2023-01-21T21:32:59.980Z,101821.26
2023-01-21T21:35:34.921Z,101820.95
2023-01-21T21:38:12.179Z,101823.73
2023-01-21T21:40:39.617Z,101827.64
2023-01-21T21:43:27.330Z,101825.49
2023-01-21T21:46:13.405Z,101827.62
2023-01-21T21:48:42.735Z,101826.44
2023-01-21T21:51:17.957Z,101831.95
2023-01-21T21:53:46.888Z,101829.96
2023-01-21T21:56:19.108Z,101831.36
2023-01-21T21:58:46.651Z,101836.41
2023-01-21T22:01:15.845Z,101841.06
2023-01-21T22:03:44.581Z,101843.60
2023-01-21T22:06:13.256Z,101844.81
2023-01-21T22:08:42.416Z,101843.80
2023-01-21T22:11:15.058Z,101848.55
2023-01-21T22:13:44.517Z,101853.27
2023-01-21T22:16:14.029Z,101851.70
2023-01-21T22:18:41.906Z,101858.04
2023-01-21T22:21:26.477Z,101852.54
2023-01-21T22:23:56.018Z,101851.02
2023-01-21T22:26:24.840Z,101852.52
2023-01-21T22:28:52.454Z,101850.38
2023-01-21T22:31:27.692Z,101852.32
2023-01-21T22:33:56.316Z,101856.99
2023-01-21T22:36:25.893Z,101855.89
2023-01-21T22:38:53.288Z,101856.64
2023-01-21T22:41:21.765Z,101857.78
2023-01-21T22:43:49.793Z,101852.48
2023-01-21T22:46:21.882Z,101856.29
2023-01-21T22:48:49.137Z,101857.07
2023-01-21T22:51:17.730Z,101857.94
2023-01-21T22:53:45.226Z,101856.64
2023-01-21T22:56:16.408Z,101855.40
2023-01-21T22:58:43.701Z,101860.64
2023-01-21T23:01:27.463Z,101867.82
2023-01-21T23:03:55.718Z,101868.59
2023-01-21T23:06:24.323Z,101871.24
2023-01-21T23:08:51.982Z,101871.20
2023-01-21T23:11:19.413Z,101874.62
2023-01-21T23:13:47.242Z,101872.24
2023-01-21T23:16:16.289Z,101876.43
2023-01-21T23:18:44.190Z,101877.77
2023-01-21T23:21:14.532Z,101875.98
2023-01-21T23:23:41.685Z,101878.02
2023-01-21T23:26:09.454Z,101877.80
2023-01-21T23:28:37.996Z,101883.30
2023-01-21T23:31:09.605Z,101890.55
2023-01-21T23:33:37.387Z,101890.61
2023-01-21T23:36:05.082Z,101888.41
2023-01-21T23:38:33.281Z,101888.40
2023-01-21T23:41:04.375Z,101891.62
2023-01-21T23:43:31.331Z,101891.80
2023-01-21T23:45:58.797Z,101894.99
2023-01-21T23:48:28.575Z,101892.77
2023-01-21T23:51:02.285Z,101895.42
2023-01-21T23:53:30.211Z,101897.94
2023-01-21T23:56:13.758Z,101899.77
2023-01-21T23:58:40.898Z,101901.58
